Time;durP1;ratioP1;P1;durP2;ratioP2;P2;SDS_P1;SDS_P2;PMS_P1;PMS_P2;Temp;Humidity;BMP_temperature;BMP_pressure;BME280_temperature;BME280_humidity;BME280_pressure;Samples;Min_cycle;Max_cycle;Signal;HPM_P1;HPM_P2
2021/12/09 00:02:02;;;;;;;;;;;;;;;-4.11;100.00;98899.83;1752657;82;20117;-65
2021/12/09 00:04:31;;;;;;;;;;;;;;;-4.11;100.00;98903.76;1752872;82;21124;-66
2021/12/09 00:07:00;;;;;;;;;;;;;;;-4.11;100.00;98907.70;1752192;82;20126;-67
2021/12/09 00:09:29;;;;;;;;;;;;;;;-4.10;100.00;98912.44;1750692;82;20440;-66
2021/12/09 00:11:57;;;;;;;;;;;;;;;-4.10;100.00;98910.63;1751879;81;20135;-66
2021/12/09 00:14:25;;;;;;;;;;;;;;;-4.07;100.00;98908.64;1744927;81;20075;-67
2021/12/09 00:16:55;;;;;;;;;;;;;;;-4.08;100.00;98908.34;1749407;81;21142;-66
2021/12/09 00:19:26;;;;;;;;;;;;;;;-4.10;100.00;98912.44;1746684;81;20499;-66
2021/12/09 00:21:58;;;;;;;;;;;;;;;-4.14;100.00;98908.52;1720568;82;20433;-66
2021/12/09 00:24:24;;;;;;;;;;;;;;;-4.17;100.00;98908.38;1741026;82;20630;-65
2021/12/09 00:26:52;;;;;;;;;;;;;;;-4.18;100.00;98910.69;1744413;82;20115;-66
2021/12/09 00:29:18;;;;;;;;;;;;;;;-4.17;100.00;98918.86;1745905;81;21125;-66
2021/12/09 00:31:47;;;;;;;;;;;;;;;-4.17;100.00;98916.23;1757065;81;20098;-66
2021/12/09 00:34:14;;;;;;;;;;;;;;;-4.17;100.00;98914.92;1755040;81;20472;-66
2021/12/09 00:36:54;;;;;;;;;;;;;;;-4.17;100.00;98917.55;1753694;81;20683;-65
2021/12/09 00:39:10;;;;;;;;;;;;;;;-4.16;100.00;98927.56;1758844;81;20157;-66
2021/12/09 00:41:38;;;;;;;;;;;;;;;-4.16;100.00;98917.08;1762854;81;21796;-66
2021/12/09 00:44:05;;;;;;;;;;;;;;;-4.17;100.00;98913.62;1763353;81;20094;-66
2021/12/09 00:46:32;;;;;;;;;;;;;;;-4.15;100.00;98918.20;1763366;81;20125;-66
2021/12/09 00:48:59;;;;;;;;;;;;;;;-4.14;100.00;98921.63;1761763;81;20585;-65
2021/12/09 00:51:25;;;;;;;;;;;;;;;-4.15;100.00;98914.77;1752043;81;20416;-66
2021/12/09 00:53:55;;;;;;;;;;;;;;;-4.16;100.00;98909.22;1752537;81;21221;-67
2021/12/09 00:56:22;;;;;;;;;;;;;;;-4.17;100.00;98915.43;1752763;81;20514;-66
2021/12/09 00:58:49;;;;;;;;;;;;;;;-4.17;100.00;98914.13;1752432;82;20098;-66
2021/12/09 01:01:16;;;;;;;;;;;;;;;-4.19;100.00;98922.65;1752454;81;20094;-65
2021/12/09 01:03:43;;;;;;;;;;;;;;;-4.20;100.00;98930.20;1752433;82;20107;-66
2021/12/09 01:06:10;;;;;;;;;;;;;;;-4.22;100.00;98927.74;1752460;82;21172;-66
2021/12/09 01:08:37;;;;;;;;;;;;;;;-4.24;100.00;98933.64;1752818;81;20130;-65
2021/12/09 01:11:05;;;;;;;;;;;;;;;-4.25;100.00;98929.41;1752376;81;20082;-65
2021/12/09 01:13:31;;;;;;;;;;;;;;;-4.23;100.00;98926.63;1752856;81;20098;-66
2021/12/09 01:15:58;;;;;;;;;;;;;;;-4.22;100.00;98925.13;1752499;81;20165;-66
2021/12/09 01:18:24;;;;;;;;;;;;;;;-4.24;100.00;98928.41;1752705;82;21780;-66
2021/12/09 01:20:51;;;;;;;;;;;;;;;-4.23;100.00;98931.36;1752337;82;20095;-64
2021/12/09 01:23:17;;;;;;;;;;;;;;;-4.24;100.00;98930.22;1752435;82;20126;-65
2021/12/09 01:25:44;;;;;;;;;;;;;;;-4.28;100.00;98923.21;1755531;81;20846;-65
2021/12/09 01:28:19;;;;;;;;;;;;;;;-4.29;100.00;98928.11;1762575;81;20431;-65
2021/12/09 01:30:40;;;;;;;;;;;;;;;-4.27;100.00;98922.70;1755525;81;22014;-65
2021/12/09 01:33:09;;;;;;;;;;;;;;;-4.27;100.00;98922.20;1743480;81;20123;-66
2021/12/09 01:35:35;;;;;;;;;;;;;;;-4.29;100.00;98918.94;1744782;81;20638;-65
2021/12/09 01:38:10;;;;;;;;;;;;;;;-4.30;100.00;98916.02;1744323;81;20098;-66
2021/12/09 01:40:33;;;;;;;;;;;;;;;-4.31;100.00;98904.72;1751736;80;20166;-65
2021/12/09 01:43:00;;;;;;;;;;;;;;;-4.31;100.00;98907.84;1714502;83;21139;-65
2021/12/09 01:45:27;;;;;;;;;;;;;;;-4.33;100.00;98903.27;1692913;84;20123;-65
2021/12/09 01:47:54;;;;;;;;;;;;;;;-4.31;100.00;98907.84;1706241;83;20102;-65
2021/12/09 01:50:21;;;;;;;;;;;;;;;-4.32;100.00;98905.70;1705034;84;20141;-65
2021/12/09 01:52:48;;;;;;;;;;;;;;;-4.31;100.00;98915.20;1705754;84;20125;-65
2021/12/09 01:55:15;;;;;;;;;;;;;;;-4.30;100.00;98916.02;1687140;84;21170;-65
2021/12/09 01:57:45;;;;;;;;;;;;;;;-4.33;100.00;98914.55;1692916;84;20144;-65
2021/12/09 02:00:17;;;;;;;;;;;;;;;-4.33;100.00;98914.55;1752126;82;20142;-65
2021/12/09 02:02:43;;;;;;;;;;;;;;;-4.28;100.00;98923.71;1752415;81;20169;-65
2021/12/09 02:05:10;;;;;;;;;;;;;;;-4.28;100.00;98920.59;1753223;82;20090;-64
2021/12/09 02:07:37;;;;;;;;;;;;;;;-4.28;100.00;98921.09;1752765;81;21154;-65
2021/12/09 02:10:05;;;;;;;;;;;;;;;-4.29;100.00;98918.13;1752210;81;20157;-65
2021/12/09 02:12:34;;;;;;;;;;;;;;;-4.30;100.00;98916.02;1752969;81;20440;-65
2021/12/09 02:15:01;;;;;;;;;;;;;;;-4.28;100.00;98913.23;1752025;82;20139;-65
2021/12/09 02:17:29;;;;;;;;;;;;;;;-4.28;100.00;98917.16;1752019;82;20143;-65
2021/12/09 02:19:57;;;;;;;;;;;;;;;-4.28;100.00;98921.91;1752648;82;21176;-65
2021/12/09 02:22:24;;;;;;;;;;;;;;;-4.28;100.00;98913.23;1752513;82;20429;-65
2021/12/09 02:24:55;;;;;;;;;;;;;;;-4.26;100.00;98921.23;1752610;82;20182;-65
2021/12/09 02:27:23;;;;;;;;;;;;;;;-4.26;100.00;98930.41;1753017;82;20175;-65
2021/12/09 02:29:51;;;;;;;;;;;;;;;-4.25;100.00;98928.09;1752371;82;20119;-65
2021/12/09 02:32:18;;;;;;;;;;;;;;;-4.26;100.00;98926.48;1742682;81;21082;-65
2021/12/09 02:34:45;;;;;;;;;;;;;;;-4.24;100.00;98929.72;1742262;81;20083;-65
2021/12/09 02:37:14;;;;;;;;;;;;;;;-4.26;100.00;98931.72;1745055;81;20083;-64
2021/12/09 02:39:42;;;;;;;;;;;;;;;-4.24;100.00;98934.95;1749414;81;20095;-65
2021/12/09 02:42:09;;;;;;;;;;;;;;;-4.24;100.00;98938.89;1748475;82;20090;-65
2021/12/09 02:44:37;;;;;;;;;;;;;;;-4.21;100.00;98938.56;1729863;82;21165;-66
2021/12/09 02:47:04;;;;;;;;;;;;;;;-4.17;100.00;98942.95;1747531;81;20404;-65
2021/12/09 02:49:31;;;;;;;;;;;;;;;-4.15;100.00;98950.14;1752619;81;20119;-66
2021/12/09 02:51:59;;;;;;;;;;;;;;;-4.14;100.00;98955.23;1751514;82;20115;-66
2021/12/09 02:54:26;;;;;;;;;;;;;;;-4.14;100.00;98952.61;1750826;82;20118;-67
2021/12/09 02:56:55;;;;;;;;;;;;;;;-4.13;100.00;98954.23;1751296;82;21812;-66
2021/12/09 02:59:21;;;;;;;;;;;;;;;-4.14;100.00;98953.91;1730145;82;20104;-65
2021/12/09 03:01:57;;;;;;;;;;;;;;;-4.13;100.00;98954.23;1721732;83;20437;-65
2021/12/09 03:04:18;;;;;;;;;;;;;;;-4.13;100.00;98952.91;1719841;82;20737;-66
2021/12/09 03:06:45;;;;;;;;;;;;;;;-4.14;100.00;98947.84;1721428;83;20095;-64
2021/12/09 03:09:15;;;;;;;;;;;;;;;-4.13;100.00;98954.73;1721380;82;20103;-64
2021/12/09 03:11:44;;;;;;;;;;;;;;;-4.14;100.00;98953.08;1721373;83;20125;-64
2021/12/09 03:14:13;;;;;;;;;;;;;;;-4.14;100.00;98956.54;1721438;83;20417;-64
2021/12/09 03:16:39;;;;;;;;;;;;;;;-4.13;100.00;98958.66;1721127;83;20130;-66
2021/12/09 03:19:07;;;;;;;;;;;;;;;-4.12;100.00;98958.97;1721432;83;20083;-63
2021/12/09 03:21:37;;;;;;;;;;;;;;;-4.10;100.00;98959.61;1721379;82;22017;-63
2021/12/09 03:24:07;;;;;;;;;;;;;;;-4.11;100.00;98964.55;1743056;81;20194;-63
2021/12/09 03:26:37;;;;;;;;;;;;;;;-4.10;100.00;98971.41;1746491;82;20134;-65
2021/12/09 03:29:06;;;;;;;;;;;;;;;-4.10;100.00;98968.79;1746011;81;20130;-65
2021/12/09 03:31:33;;;;;;;;;;;;;;;-4.08;100.00;98966.00;1752848;81;20198;-64
2021/12/09 03:34:00;;;;;;;;;;;;;;;-4.07;100.00;98971.55;1757013;80;21155;-64
2021/12/09 03:36:28;;;;;;;;;;;;;;;-4.08;100.00;98968.12;1757162;81;20090;-64
2021/12/09 03:39:00;;;;;;;;;;;;;;;-4.05;100.00;98968.27;1733055;83;20470;-64
2021/12/09 03:41:26;;;;;;;;;;;;;;;-4.04;100.00;98977.28;1759954;81;20725;-65
2021/12/09 03:43:53;;;;;;;;;;;;;;;-4.02;100.00;98974.47;1763076;81;20149;-64
2021/12/09 03:46:19;;;;;;;;;;;;;;;-4.01;100.00;98980.86;1762120;81;21166;-64
2021/12/09 03:48:45;;;;;;;;;;;;;;;-3.97;100.00;98982.63;1762997;81;20417;-65
2021/12/09 03:51:12;;;;;;;;;;;;;;;-3.97;100.00;98984.78;1757366;81;20082;-63
2021/12/09 03:53:38;;;;;;;;;;;;;;;-3.96;100.00;98983.77;1755315;81;20727;-65
2021/12/09 03:56:05;;;;;;;;;;;;;;;-3.97;100.00;98983.47;1758135;81;20417;-65
2021/12/09 03:58:32;;;;;;;;;;;;;;;-3.96;100.00;98989.52;1760656;81;21162;-64
2021/12/09 04:00:58;;;;;;;;;;;;;;;-3.97;100.00;98979.53;1759850;81;20138;-66
2021/12/09 04:03:26;;;;;;;;;;;;;;;-3.93;100.00;98985.23;1755225;81;20127;-63
2021/12/09 04:05:53;;;;;;;;;;;;;;;-3.92;100.00;98985.06;1755427;81;20702;-65
2021/12/09 04:08:21;;;;;;;;;;;;;;;-3.90;100.00;98986.19;1755232;82;20443;-64
2021/12/09 04:10:49;;;;;;;;;;;;;;;-3.88;100.00;98990.27;1761875;81;21090;-68
2021/12/09 04:13:18;;;;;;;;;;;;;;;-3.87;100.00;98997.66;1762739;81;20149;-64
2021/12/09 04:15:44;;;;;;;;;;;;;;;-3.84;100.00;99001.23;1761933;81;20133;-65
2021/12/09 04:18:13;;;;;;;;;;;;;;;-3.84;100.00;98989.44;1762525;81;20118;-64
2021/12/09 04:20:40;;;;;;;;;;;;;;;-3.82;100.00;98994.48;1762527;81;20117;-65
2021/12/09 04:23:07;;;;;;;;;;;;;;;-3.83;100.00;98994.98;1756740;81;21830;-65
2021/12/09 04:25:35;;;;;;;;;;;;;;;-3.84;100.00;98995.19;1759380;81;20082;-64
2021/12/09 04:28:02;;;;;;;;;;;;;;;-3.85;100.00;98996.16;1752567;82;20110;-66
2021/12/09 04:30:29;;;;;;;;;;;;;;;-3.87;100.00;99000.28;1759029;81;20439;-66
2021/12/09 04:32:57;;;;;;;;;;;;;;;-3.88;100.00;99009.13;1754651;81;20109;-65
2021/12/09 04:35:23;;;;;;;;;;;;;;;-3.83;100.00;99009.91;1752743;82;21145;-65
2021/12/09 04:37:51;;;;;;;;;;;;;;;-3.83;100.00;99012.03;1750336;81;20172;-65
2021/12/09 04:40:17;;;;;;;;;;;;;;;-3.82;100.00;99009.75;1734074;81;20087;-64
2021/12/09 04:42:45;;;;;;;;;;;;;;;-3.82;100.00;99015.47;1738423;82;20637;-65
2021/12/09 04:45:11;;;;;;;;;;;;;;;-3.81;100.00;99016.61;1752895;82;20150;-65
2021/12/09 04:47:38;;;;;;;;;;;;;;;-3.80;100.00;99014.80;1752752;82;22338;-66
2021/12/09 04:50:05;;;;;;;;;;;;;;;-3.80;100.00;99009.55;1752488;82;20095;-65
2021/12/09 04:52:32;;;;;;;;;;;;;;;-3.79;100.00;99007.27;1753262;82;20083;-66
2021/12/09 04:54:58;;;;;;;;;;;;;;;-3.78;100.00;99003.64;1719089;82;20083;-67
2021/12/09 04:57:24;;;;;;;;;;;;;;;-3.78;100.00;99010.20;1719255;83;20425;-67
2021/12/09 04:59:52;;;;;;;;;;;;;;;-3.76;100.00;99018.22;1718918;82;21851;-67
2021/12/09 05:03:00;;;;;;;;;;;;;;;-3.75;100.00;99023.80;1718843;82;20163;-67
2021/12/09 05:04:50;;;;;;;;;;;;;;;-3.75;100.00;99022.48;1713068;83;20135;-67
2021/12/09 05:07:18;;;;;;;;;;;;;;;-3.74;100.00;99033.29;1719133;83;20429;-67
2021/12/09 05:09:50;;;;;;;;;;;;;;;-3.75;100.00;99031.67;1719220;83;20139;-67
2021/12/09 05:12:14;;;;;;;;;;;;;;;-3.72;100.00;99030.50;1718765;82;21074;-66
2021/12/09 05:14:40;;;;;;;;;;;;;;;-3.71;100.00;99030.81;1718909;83;20115;-65
2021/12/09 05:17:07;;;;;;;;;;;;;;;-3.70;100.00;99027.19;1719538;83;20075;-65
2021/12/09 05:19:34;;;;;;;;;;;;;;;-3.70;100.00;99033.27;1718891;82;20482;-65
2021/12/09 05:22:01;;;;;;;;;;;;;;;-3.70;100.00;99033.74;1719582;83;20117;-65
2021/12/09 05:24:27;;;;;;;;;;;;;;;-3.71;100.00;99032.93;1718697;82;21154;-65
2021/12/09 05:26:55;;;;;;;;;;;;;;;-3.71;100.00;99038.17;1714561;83;20094;-65
2021/12/09 05:29:28;;;;;;;;;;;;;;;-3.71;100.00;99042.61;1711419;82;20432;-65
2021/12/09 05:32:10;;;;;;;;;;;;;;;-3.71;100.00;99051.29;1712516;81;20098;-65
2021/12/09 05:34:46;;;;;;;;;;;;;;;-3.69;100.00;99050.63;1752492;81;20117;-66
2021/12/09 05:37:18;;;;;;;;;;;;;;;-3.66;100.00;99052.89;1763095;81;21163;-66
2021/12/09 05:39:46;;;;;;;;;;;;;;;-3.62;100.00;99064.37;1762675;81;20082;-64
2021/12/09 05:42:13;;;;;;;;;;;;;;;-3.65;100.00;99058.95;1741518;82;20435;-65
2021/12/09 05:44:40;;;;;;;;;;;;;;;-3.64;100.00;99063.73;1754162;81;20083;-64
2021/12/09 05:47:07;;;;;;;;;;;;;;;-3.62;100.00;99070.94;1744673;81;20105;-65
2021/12/09 05:49:35;;;;;;;;;;;;;;;-3.63;100.00;99067.97;1727312;82;21829;-66
2021/12/09 05:52:02;;;;;;;;;;;;;;;-3.62;100.00;99074.87;1727052;82;20209;-66
2021/12/09 05:54:29;;;;;;;;;;;;;;;-3.63;100.00;99063.53;1749949;81;20428;-67
2021/12/09 05:56:58;;;;;;;;;;;;;;;-3.61;100.00;99075.98;1759000;81;20515;-66
2021/12/09 05:59:25;;;;;;;;;;;;;;;-3.59;100.00;99083.69;1745796;81;20149;-66
2021/12/09 06:01:54;;;;;;;;;;;;;;;-3.60;100.00;99080.27;1763224;81;21144;-67
2021/12/09 06:04:21;;;;;;;;;;;;;;;-3.58;100.00;99086.13;1760838;81;20105;-67
2021/12/09 06:06:50;;;;;;;;;;;;;;;-3.58;100.00;99080.06;1761731;81;20428;-66
2021/12/09 06:09:17;;;;;;;;;;;;;;;-3.58;100.00;99076.94;1763203;81;20090;-66
2021/12/09 06:11:46;;;;;;;;;;;;;;;-3.58;100.00;99086.63;1724232;82;20158;-66
2021/12/09 06:14:13;;;;;;;;;;;;;;;-3.59;100.00;99085.00;1724044;83;21838;-66
2021/12/09 06:16:45;;;;;;;;;;;;;;;-3.61;100.00;99086.98;1756503;81;20448;-68
2021/12/09 06:19:13;;;;;;;;;;;;;;;-3.63;100.00;99087.14;1747997;81;20639;-67
2021/12/09 06:21:44;;;;;;;;;;;;;;;-3.61;100.00;99088.30;1723833;81;20458;-66
2021/12/09 06:24:12;;;;;;;;;;;;;;;-3.60;100.00;99088.59;1704001;83;20146;-66
2021/12/09 06:26:40;;;;;;;;;;;;;;;-3.62;100.00;99091.92;1701603;83;21233;-67
2021/12/09 06:29:08;;;;;;;;;;;;;;;-3.62;100.00;99092.73;1758034;81;20237;-66
2021/12/09 06:31:35;;;;;;;;;;;;;;;-3.60;100.00;99100.41;1759179;81;20173;-67
2021/12/09 06:34:02;;;;;;;;;;;;;;;-3.60;100.00;99101.25;1725016;83;20175;-66
2021/12/09 06:36:28;;;;;;;;;;;;;;;-3.58;100.00;99108.92;1725734;82;20131;-65
2021/12/09 06:38:56;;;;;;;;;;;;;;;-3.58;100.00;99109.73;1725856;82;21174;-66
2021/12/09 06:41:23;;;;;;;;;;;;;;;-3.59;100.00;99105.49;1725693;82;20137;-66
2021/12/09 06:43:49;;;;;;;;;;;;;;;-3.59;100.00;99110.73;1724810;83;20435;-66
2021/12/09 06:46:15;;;;;;;;;;;;;;;-3.59;100.00;99108.11;1720776;83;20089;-66
2021/12/09 06:48:45;;;;;;;;;;;;;;;-3.58;100.00;99113.67;1723931;82;20192;-66
2021/12/09 06:51:19;;;;;;;;;;;;;;;-3.58;100.00;99114.98;1721668;83;21949;-70
2021/12/09 06:53:46;;;;;;;;;;;;;;;-3.56;100.00;99119.56;1720323;83;20446;-66
2021/12/09 06:56:13;;;;;;;;;;;;;;;-3.54;100.00;99120.72;1717997;82;20180;-66
2021/12/09 06:58:39;;;;;;;;;;;;;;;-3.53;100.00;99123.65;1700081;83;20139;-66
2021/12/09 07:01:07;;;;;;;;;;;;;;;-3.49;100.00;99128.88;1726175;83;20099;-67
2021/12/09 07:03:35;;;;;;;;;;;;;;;-3.47;100.00;99134.78;1726487;82;21157;-66
2021/12/09 07:06:06;;;;;;;;;;;;;;;-3.41;100.00;99136.69;1725736;83;20096;-65
2021/12/09 07:08:38;;;;;;;;;;;;;;;-3.40;100.00;99136.22;1726502;83;20119;-66
2021/12/09 07:11:04;;;;;;;;;;;;;;;-3.38;100.00;99136.37;1726864;83;20087;-66
2021/12/09 07:13:31;;;;;;;;;;;;;;;-3.37;100.00;99134.55;1726494;81;20146;-66
2021/12/09 07:15:59;;;;;;;;;;;;;;;-3.34;100.00;99138.95;1726295;83;21197;-68
2021/12/09 07:18:27;;;;;;;;;;;;;;;-3.29;100.00;99139.23;1726215;83;20095;-66
2021/12/09 07:20:54;;;;;;;;;;;;;;;-3.26;100.00;99146.78;1726805;83;20142;-66
2021/12/09 07:23:20;;;;;;;;;;;;;;;-3.22;100.00;99145.12;1726272;83;20150;-66
2021/12/09 07:25:47;;;;;;;;;;;;;;;-3.18;100.00;99148.53;1726829;83;20466;-66
2021/12/09 07:28:14;;;;;;;;;;;;;;;-3.16;100.00;99147.87;1726624;83;21973;-66
2021/12/09 07:30:41;;;;;;;;;;;;;;;-3.15;100.00;99141.61;1726683;83;20098;-66
2021/12/09 07:33:08;;;;;;;;;;;;;;;-3.12;100.00;99143.88;1741540;82;20147;-66
2021/12/09 07:35:34;;;;;;;;;;;;;;;-3.05;100.00;99144.00;1753218;81;20106;-67
2021/12/09 07:38:03;;;;;;;;;;;;;;;-3.03;100.00;99142.02;1752938;82;20118;-66
2021/12/09 07:40:30;;;;;;;;;;;;;;;-3.03;100.00;99148.09;1753218;82;21166;-66
2021/12/09 07:42:56;;;;;;;;;;;;;;;-2.99;100.00;99149.04;1753262;81;20092;-66
2021/12/09 07:45:23;;;;;;;;;;;;;;;-2.98;100.00;99150.69;1753182;82;20130;-66
2021/12/09 07:47:50;;;;;;;;;;;;;;;-2.99;100.00;99155.10;1753016;81;20095;-66
2021/12/09 07:50:18;;;;;;;;;;;;;;;-2.99;100.00;99153.79;1753153;81;20441;-66
2021/12/09 07:52:48;;;;;;;;;;;;;;;-2.94;100.00;99163.77;1753019;82;21152;-67
2021/12/09 07:55:15;;;;;;;;;;;;;;;-2.91;100.00;99166.06;1752983;82;20094;-67
2021/12/09 07:57:42;;;;;;;;;;;;;;;-2.89;100.00;99167.52;1753047;82;20099;-66
2021/12/09 08:00:12;;;;;;;;;;;;;;;-2.90;100.00;99166.38;1753214;82;20098;-67
2021/12/09 08:02:40;;;;;;;;;;;;;;;-2.88;100.00;99172.27;1753105;82;20146;-66
2021/12/09 08:05:08;;;;;;;;;;;;;;;-2.88;100.00;99167.83;1753321;82;21084;-67
2021/12/09 08:07:34;;;;;;;;;;;;;;;-2.85;100.00;99176.66;1752904;82;20103;-67
2021/12/09 08:10:01;;;;;;;;;;;;;;;-2.86;100.00;99181.61;1753371;82;20106;-68
2021/12/09 08:12:28;;;;;;;;;;;;;;;-2.85;100.00;99178.48;1752952;82;20099;-68
2021/12/09 08:14:54;;;;;;;;;;;;;;;-2.83;100.00;99183.88;1753090;82;20083;-69
2021/12/09 08:20:05;;;;;;;;;;;;;;;-2.85;100.00;99182.42;1644911;86;20194;-68
2021/12/09 08:22:32;;;;;;;;;;;;;;;-2.83;100.00;99189.62;1642583;86;20111;-68
2021/12/09 08:24:59;;;;;;;;;;;;;;;-2.78;100.00;99187.29;1642601;86;20677;-67
2021/12/09 08:27:27;;;;;;;;;;;;;;;-2.79;100.00;99179.10;1635681;87;20217;-68
2021/12/09 08:29:53;;;;;;;;;;;;;;;-2.75;100.00;99184.30;1635904;87;21136;-68
2021/12/09 08:32:21;;;;;;;;;;;;;;;-2.75;100.00;99186.12;1636564;86;20267;-69
2021/12/09 08:34:47;;;;;;;;;;;;;;;-2.72;100.00;99185.28;1640363;86;20512;-69
2021/12/09 08:37:15;;;;;;;;;;;;;;;-2.69;100.00;99186.73;1640224;86;20497;-69
2021/12/09 08:39:41;;;;;;;;;;;;;;;-2.68;100.00;99187.05;1644954;87;20160;-68
2021/12/09 08:42:08;;;;;;;;;;;;;;;-2.67;100.00;99183.41;1641346;86;21874;-69
2021/12/09 08:44:36;;;;;;;;;;;;;;;-2.69;100.00;99188.05;1644905;87;20363;-70
2021/12/09 08:47:04;;;;;;;;;;;;;;;-2.67;100.00;99183.41;1617121;87;20211;-70
2021/12/09 08:49:31;;;;;;;;;;;;;;;-2.66;100.00;99180.63;1640208;86;20555;-70
2021/12/09 08:51:58;;;;;;;;;;;;;;;-2.63;100.00;99178.94;1641052;86;20131;-69
2021/12/09 08:54:25;;;;;;;;;;;;;;;-2.60;100.00;99186.97;1640006;86;21168;-69
2021/12/09 08:56:52;;;;;;;;;;;;;;;-2.63;100.00;99184.70;1714901;82;20094;-69
2021/12/09 08:59:21;;;;;;;;;;;;;;;-2.62;100.00;99187.16;1695762;84;20140;-69
2021/12/09 09:01:51;;;;;;;;;;;;;;;-2.61;100.00;99186.66;1696265;84;20799;-69
2021/12/09 09:04:19;;;;;;;;;;;;;;;-2.61;100.00;99181.41;1696589;84;20823;-69
2021/12/09 09:06:56;;;;;;;;;;;;;;;-2.58;100.00;99184.98;1696328;84;21835;-69
2021/12/09 09:09:26;;;;;;;;;;;;;;;-2.54;100.00;99187.59;1695934;84;20134;-68
2021/12/09 09:11:52;;;;;;;;;;;;;;;-2.51;100.00;99180.66;1693026;83;20167;-68
2021/12/09 09:14:19;;;;;;;;;;;;;;;-2.48;100.00;99189.98;1684563;84;20190;-68
2021/12/09 09:16:46;;;;;;;;;;;;;;;-2.48;100.00;99184.73;1694373;84;20144;-68
2021/12/09 09:19:13;;;;;;;;;;;;;;;-2.49;100.00;99181.30;1695617;84;21780;-67
2021/12/09 09:21:42;;;;;;;;;;;;;;;-2.47;100.00;99179.81;1695228;84;20127;-67
2021/12/09 09:24:09;;;;;;;;;;;;;;;-2.47;100.00;99185.07;1696069;84;20437;-68
2021/12/09 09:26:37;;;;;;;;;;;;;;;-2.46;100.00;99178.80;1694774;84;20613;-67
2021/12/09 09:29:03;;;;;;;;;;;;;;;-2.45;100.00;99180.42;1695698;84;20130;-67
2021/12/09 09:31:32;;;;;;;;;;;;;;;-2.45;100.00;99174.70;1681988;84;21163;-68
2021/12/09 09:34:02;;;;;;;;;;;;;;;-2.45;100.00;99173.86;1711718;83;20260;-69
2021/12/09 09:36:29;;;;;;;;;;;;;;;-2.44;100.00;99171.56;1709913;84;20159;-67
2021/12/09 09:39:06;;;;;;;;;;;;;;;-2.40;100.00;99173.66;1712964;83;20145;-68
2021/12/09 09:41:31;;;;;;;;;;;;;;;-2.39;100.00;99167.89;1719425;82;20214;-68
2021/12/09 09:43:58;;;;;;;;;;;;;;;-2.37;100.00;99173.30;1717518;82;21875;-68
2021/12/09 09:46:27;;;;;;;;;;;;;;;-2.36;100.00;99170.16;1716230;82;20279;-68
2021/12/09 09:48:55;;;;;;;;;;;;;;;-2.29;100.00;99174.21;1707332;82;20432;-68
2021/12/09 09:51:23;;;;;;;;;;;;;;;-2.24;100.00;99174.48;1716926;81;20658;-70
2021/12/09 09:53:49;;;;;;;;;;;;;;;-2.26;100.00;99170.71;1686422;83;20174;-69
2021/12/09 09:56:19;;;;;;;;;;;;;;;-2.25;100.00;99175.49;1711838;82;21170;-68
2021/12/09 09:58:58;;;;;;;;;;;;;;;-2.24;100.00;99177.11;1710886;82;20172;-69
2021/12/09 10:01:28;;;;;;;;;;;;;;;-2.19;100.00;99175.56;1707929;82;20141;-67
2021/12/09 10:04:10;;;;;;;;;;;;;;;-2.19;100.00;99170.31;1705640;82;20264;-70
2021/12/09 10:06:23;;;;;;;;;;;;;;;-2.14;100.00;99164.51;1708528;83;20160;-69
2021/12/09 10:08:49;;;;;;;;;;;;;;;-2.11;100.00;99161.52;1716212;83;21130;-70
2021/12/09 10:11:16;;;;;;;;;;;;;;;-2.12;100.00;99163.84;1715712;83;20754;-71
2021/12/09 10:13:43;;;;;;;;;;;;;;;-2.12;100.00;99160.40;1713475;82;20119;-70
2021/12/09 10:16:20;;;;;;;;;;;;;;;-2.09;100.00;99162.16;1714321;83;20114;-71
2021/12/09 10:18:51;;;;;;;;;;;;;;;-2.09;100.00;99164.78;1714338;83;20099;-69
2021/12/09 10:21:22;;;;;;;;;;;;;;;-2.06;100.00;99165.72;1713274;82;21139;-66
2021/12/09 10:24:02;;;;;;;;;;;;;;;-2.10;100.00;99157.91;1708424;84;20110;-64
2021/12/09 10:26:41;;;;;;;;;;;;;;;-2.11;100.00;99167.27;1708378;84;20134;-68
2021/12/09 10:29:16;;;;;;;;;;;;;;;-2.14;100.00;99172.40;1710986;82;20175;-69
2021/12/09 10:31:51;;;;;;;;;;;;;;;-2.14;100.00;99167.14;1705972;83;20128;-68
2021/12/09 10:34:34;;;;;;;;;;;;;;;-2.10;100.00;99168.92;1690711;83;21390;-69
2021/12/09 10:37:04;;;;;;;;;;;;;;;-2.06;100.00;99165.72;1709379;82;20510;-72
2021/12/09 10:39:43;;;;;;;;;;;;;;;-2.03;100.00;99163.26;1711781;83;20162;-67
2021/12/09 10:42:22;;;;;;;;;;;;;;;-2.00;100.00;99163.70;1715857;83;20646;-70
2021/12/09 10:45:00;;;;;;;;;;;;;;;-1.99;100.00;99157.42;1706712;83;20230;-69
2021/12/09 10:50:33;;;;;;;;;;;;;;;-2.01;100.00;99163.39;1721011;82;20118;-68
2021/12/09 10:53:03;;;;;;;;;;;;;;;-2.00;100.00;99155.00;1715741;82;20240;-71
2021/12/09 10:55:31;;;;;;;;;;;;;;;-2.01;100.00;99152.88;1688806;83;20720;-69
2021/12/09 10:58:09;;;;;;;;;;;;;;;-1.97;100.00;99154.63;1709468;83;20168;-69
2021/12/09 11:00:55;;;;;;;;;;;;;;;-1.91;100.00;99149.97;1689438;83;20892;-68
2021/12/09 11:03:22;;;;;;;;;;;;;;;-1.88;100.00;99146.16;1701288;83;20204;-71
2021/12/09 11:06:06;;;;;;;;;;;;;;;-1.80;100.00;99145.53;1705026;83;20178;-69
2021/12/09 11:08:52;;;;;;;;;;;;;;;-1.75;100.00;99143.67;1716589;83;20238;-70
2021/12/09 11:11:34;;;;;;;;;;;;;;;-1.73;100.00;99150.89;1719728;82;20148;-70
2021/12/09 11:14:11;;;;;;;;;;;;;;;-1.71;100.00;99154.16;1700507;83;21840;-70
2021/12/09 11:16:41;;;;;;;;;;;;;;;-1.65;100.00;99151.28;1692901;83;20732;-70
2021/12/09 11:19:30;;;;;;;;;;;;;;;-1.65;100.00;99142.88;1698860;83;20142;-70
2021/12/09 11:22:11;;;;;;;;;;;;;;;-1.70;100.00;99141.81;1732919;80;20140;-69
2021/12/09 11:24:43;;;;;;;;;;;;;;;-1.76;100.00;99131.02;1708293;83;20455;-68
2021/12/09 11:27:10;;;;;;;;;;;;;;;-1.80;100.00;99136.83;1709028;82;21072;-70
2021/12/09 11:29:47;;;;;;;;;;;;;;;-1.78;100.00;99136.16;1716798;83;20105;-69
2021/12/09 11:32:41;;;;;;;;;;;;;;;-1.72;100.00;99130.95;1720684;82;20135;-68
2021/12/09 11:35:20;;;;;;;;;;;;;;;-1.68;100.00;99132.73;1738478;80;20418;-67
2021/12/09 11:37:55;;;;;;;;;;;;;;;-1.70;100.00;99128.65;1744075;81;20127;-68
2021/12/09 11:43:04;;;;;;;;;;;;;;;-1.66;100.00;99132.05;1735429;82;20099;-68
2021/12/09 11:45:39;;;;;;;;;;;;;;;-1.69;100.00;99139.48;1737377;82;20409;-68
2021/12/09 11:48:07;;;;;;;;;;;;;;;-1.69;100.00;99142.95;1737751;82;20249;-68
2021/12/09 11:50:37;;;;;;;;;;;;;;;-1.68;100.00;99155.60;1729285;82;20168;-68
2021/12/09 11:53:09;;;;;;;;;;;;;;;-1.66;100.00;99154.92;1714238;82;21781;-68
2021/12/09 11:55:46;;;;;;;;;;;;;;;-1.69;100.00;99150.00;1720738;81;20085;-68
2021/12/09 11:58:18;;;;;;;;;;;;;;;-1.69;100.00;99148.22;1717072;81;20122;-68
2021/12/09 12:13:03;;;;;;;;;;;;;;;-1.57;100.00;99146.73;1700307;83;20122;-69
2021/12/09 12:15:46;;;;;;;;;;;;;;;-1.52;100.00;99139.09;1701460;83;20447;-69
2021/12/09 12:18:43;;;;;;;;;;;;;;;-1.52;100.00;99140.89;1701515;83;20158;-67
2021/12/09 12:20:52;;;;;;;;;;;;;;;-1.49;100.00;99146.28;1691516;82;21180;-69
2021/12/09 12:23:29;;;;;;;;;;;;;;;-1.46;100.00;99141.48;1693186;84;20117;-69
2021/12/09 12:26:48;;;;;;;;;;;;;;;-1.45;100.00;99136.52;1693000;84;20106;-70
2021/12/09 12:39:57;;;;;;;;;;;;;;;-1.34;100.00;99147.89;1693248;84;20093;-70
2021/12/09 12:42:09;;;;;;;;;;;;;;;-1.35;100.00;99146.27;1689349;84;20121;-70
2021/12/09 12:44:34;;;;;;;;;;;;;;;-1.36;100.00;99158.29;1692652;84;20101;-70
2021/12/09 12:47:12;;;;;;;;;;;;;;;-1.36;100.00;99159.61;1715657;82;21151;-70
2021/12/09 12:49:35;;;;;;;;;;;;;;;-1.37;100.00;99165.38;1713983;82;20120;-69
2021/12/09 12:52:09;;;;;;;;;;;;;;;-1.40;100.00;99174.94;1715614;82;20113;-68
2021/12/09 12:57:34;;;;;;;;;;;;;;;-1.39;100.00;99169.20;1715713;83;20149;-68
2021/12/09 13:00:20;;;;;;;;;;;;;;;-1.42;100.00;99171.70;1715825;83;21149;-68
2021/12/09 13:03:13;;;;;;;;;;;;;;;-1.43;100.00;99169.25;1715553;83;20101;-70
2021/12/09 13:16:49;;;;;;;;;;;;;;;-1.40;100.00;99181.52;1715967;83;20125;-70
2021/12/09 13:19:20;;;;;;;;;;;;;;;-1.39;100.00;99188.95;1709213;82;20471;-69
2021/12/09 13:21:44;;;;;;;;;;;;;;;-1.39;100.00;99181.05;1710612;82;20105;-70
2021/12/09 13:27:42;;;;;;;;;;;;;;;-1.38;100.00;99183.48;1706391;83;21210;-70
2021/12/09 13:30:31;;;;;;;;;;;;;;;-1.38;100.00;99182.67;1704323;83;20118;-70
2021/12/09 13:35:56;;;;;;;;;;;;;;;-1.38;100.00;99196.64;1705020;83;20564;-70
2021/12/09 13:46:35;;;;;;;;;;;;;;;-1.40;100.00;99210.99;1711292;82;20472;-69